Cenka — TCTG5 — position and weather

sailwx.info

Track history (hours):
 
Tides and Currents Weather Stations Pressure Air Temp Water Temp Dewpoint Dewpoint Depression Visibility Wind Speed Wind Dir Waves Ship Positions

Cenka

Last reported at 2017-Oct-20 12:29 UTC. Time now 2017-Oct-23 08:16 UTC.
Position N 46°20' E 030°39'.

Length 150 m; draft 4.9 m.

Type: Passenger vessel. MMSI: 271002610.

Date/timePositionNaut miles runAvg speedWind from/ knotsBaromVisibWave heightAir tempDewpointWater temp
2017-Oct-20 12:29N 46°20' E 030°39'3 6.2
2017-Oct-20 11:59N 46°19' E 030°43'3 6.0
2017-Oct-20 11:27N 46°16' E 030°45'1 1.2
2017-Oct-20 10:55N 46°15' E 030°45'0 0.0
2017-Oct-20 08:25N 46°15' E 030°45'2 5.1
2017-Oct-20 07:58N 46°13' E 030°46'813.7
2017-Oct-20 07:24N 46°06' E 030°48'714.1
2017-Oct-20 06:56N 45°59' E 030°50'3014.1
2017-Oct-20 04:50N 45°30' E 030°57'2514.3
2017-Oct-20 03:04N 45°05' E 031°02'114.1
2017-Oct-20 02:59N 45°04' E 031°02'1114.4
2017-Oct-20 02:14N 44°53' E 031°04'314.4
2017-Oct-20 02:00N 44°50' E 031°05'814.5
2017-Oct-20 01:28N 44°42' E 031°06'814.6
2017-Oct-20 00:57N 44°35' E 031°07'714.6
2017-Oct-20 00:28N 44°28' E 031°09'714.8
2017-Oct-20 00:00N 44°21' E 031°11'1114.9
2017-Oct-19 23:16N 44°10' E 031°13'414.9
2017-Oct-19 23:00N 44°06' E 031°14'3014.8
2017-Oct-19 20:59N 43°36' E 031°19'1014.7
2017-Oct-19 20:18N 43°27' E 031°21'414.6
2017-Oct-19 20:00N 43°22' E 031°22'714.4
2017-Oct-19 19:30N 43°15' E 031°24'714.3
2017-Oct-19 19:00N 43°08' E 031°26'714.0
2017-Oct-19 18:31N 43°01' E 031°28'814.1
2017-Oct-19 17:57N 42°54' E 031°30'814.2
2017-Oct-19 17:23N 42°46' E 031°31'614.3
2017-Oct-19 16:58N 42°40' E 031°32'714.4
2017-Oct-19 16:30N 42°33' E 031°34'914.6
2017-Oct-19 15:54N 42°25' E 031°36'814.3
2017-Oct-19 15:22N 42°17' E 031°37'514.4
2017-Oct-19 15:00N 42°12' E 031°38'814.5
2017-Oct-19 14:27N 42°04' E 031°40'1614.3
2017-Oct-19 13:20N 41°48' E 031°43'514.2
2017-Oct-19 13:00N 41°43' E 031°43'714.0
2017-Oct-19 12:30N 41°36' E 031°44'913.4
2017-Oct-19 11:51N 41°28' E 031°46'1 0.1
2017-Oct-19 07:10N 41°27' E 031°47'0 0.0
2017-Oct-19 06:55N 41°27' E 031°47'0 0.0
2017-Oct-19 06:22N 41°27' E 031°47'0 0.0
2017-Oct-19 05:55N 41°27' E 031°47'0 0.0
2017-Oct-19 05:25N 41°27' E 031°47'0 0.0
2017-Oct-19 04:55N 41°27' E 031°47'0 0.0
2017-Oct-19 04:25N 41°27' E 031°47'0 0.0
2017-Oct-19 03:55N 41°27' E 031°47'0 0.0
2017-Oct-19 03:19N 41°27' E 031°47'0 0.0
2017-Oct-19 02:58N 41°27' E 031°47'0 0.0
2017-Oct-19 02:25N 41°27' E 031°47'0 0.0
2017-Oct-19 01:55N 41°27' E 031°47'0 0.0
2017-Oct-19 00:01N 41°27' E 031°47'0 0.1
2017-Oct-18 23:58N 41°27' E 031°47'0 0.0
2017-Oct-18 23:28N 41°27' E 031°47'0 0.0
2017-Oct-18 22:58N 41°27' E 031°47'0 0.0
2017-Oct-18 22:28N 41°27' E 031°47'0 0.0
2017-Oct-18 21:22N 41°27' E 031°47'36 4.9
2017-Oct-18 14:00N 42°03' E 031°39'714.6
2017-Oct-18 13:30N 42°10' E 031°37'714.6
2017-Oct-18 13:00N 42°17' E 031°36'714.7
2017-Oct-18 12:30N 42°25' E 031°34'714.7
2017-Oct-18 12:00N 42°32' E 031°33'714.6
2017-Oct-18 11:30N 42°39' E 031°32'714.5
2017-Oct-18 11:00N 42°46' E 031°30'714.6
2017-Oct-18 10:30N 42°54' E 031°29'20914.2
2017-Oct-17 19:43N 46°20' E 030°40'0 0.0
2017-Oct-16 08:56N 46°20' E 030°40'12012.7
2017-Oct-15 23:25N 44°24' E 029°51'613.5
2017-Oct-15 23:00N 44°19' E 029°47'713.6
2017-Oct-15 22:30N 44°13' E 029°44'713.4
2017-Oct-15 22:00N 44°07' E 029°40'713.5
2017-Oct-15 21:30N 44°00' E 029°36'713.4
2017-Oct-15 21:00N 43°54' E 029°32'713.4
2017-Oct-15 20:30N 43°48' E 029°28'713.6
2017-Oct-15 20:00N 43°43' E 029°34'713.7
2017-Oct-15 19:30N 43°37' E 029°39'713.9
2017-Oct-15 19:00N 43°31' E 029°45'  
2017-Oct-13 04:17N 44°29' E 031°09'414.2
2017-Oct-13 04:00N 44°33' E 031°08'714.3
2017-Oct-13 03:31N 44°40' E 031°07'714.2
2017-Oct-13 03:00N 44°47' E 031°06'714.1
2017-Oct-13 02:31N 44°54' E 031°04'714.3
2017-Oct-13 02:00N 45°01' E 031°03'714.1
2017-Oct-13 01:30N 45°08' E 031°02'714.3
2017-Oct-13 01:00N 45°15' E 031°00'1014.0
2017-Oct-13 00:18N 45°24' E 030°58'413.8
2017-Oct-13 00:00N 45°29' E 030°57'713.9
2017-Oct-12 23:30N 45°35' E 030°56'714.0
2017-Oct-12 23:01N 45°42' E 030°54'714.0
2017-Oct-12 22:30N 45°49' E 030°53'714.0
2017-Oct-12 22:00N 45°56' E 030°51'714.0
2017-Oct-12 21:30N 46°03' E 030°49'714.0
2017-Oct-12 21:01N 46°10' E 030°47'713.9
2017-Oct-12 20:30N 46°17' E 030°45'510.1
2017-Oct-12 19:59N 46°20' E 030°39'1 0.0
2017-Oct-11 17:59N 46°20' E 030°39'  
Track history (hours):
 
Tides and Currents Weather Stations Pressure Air Temp Water Temp Dewpoint Dewpoint Depression Visibility Wind Speed Wind Dir Waves Ship Positions

Cenka

Last reported at 2017-Oct-20 12:29 UTC. Time now 2017-Oct-23 08:16 UTC.
Position N 46°20' E 030°39'.

Length 150 m; draft 4.9 m.

Type: Passenger vessel. MMSI: 271002610.

Date/timePositionNaut miles runAvg speedWind from/ knotsBaromVisibWave heightAir tempDewpointWater temp
2017-Oct-20 12:29N 46°20' E 030°39'3 6.2
2017-Oct-20 11:59N 46°19' E 030°43'3 6.0
2017-Oct-20 11:27N 46°16' E 030°45'1 1.2
2017-Oct-20 10:55N 46°15' E 030°45'0 0.0
2017-Oct-20 08:25N 46°15' E 030°45'2 5.1
2017-Oct-20 07:58N 46°13' E 030°46'813.7
2017-Oct-20 07:24N 46°06' E 030°48'714.1
2017-Oct-20 06:56N 45°59' E 030°50'3014.1
2017-Oct-20 04:50N 45°30' E 030°57'2514.3
2017-Oct-20 03:04N 45°05' E 031°02'114.1
2017-Oct-20 02:59N 45°04' E 031°02'1114.4
2017-Oct-20 02:14N 44°53' E 031°04'314.4
2017-Oct-20 02:00N 44°50' E 031°05'814.5
2017-Oct-20 01:28N 44°42' E 031°06'814.6
2017-Oct-20 00:57N 44°35' E 031°07'714.6
2017-Oct-20 00:28N 44°28' E 031°09'714.8
2017-Oct-20 00:00N 44°21' E 031°11'1114.9
2017-Oct-19 23:16N 44°10' E 031°13'414.9
2017-Oct-19 23:00N 44°06' E 031°14'3014.8
2017-Oct-19 20:59N 43°36' E 031°19'1014.7
2017-Oct-19 20:18N 43°27' E 031°21'414.6
2017-Oct-19 20:00N 43°22' E 031°22'714.4
2017-Oct-19 19:30N 43°15' E 031°24'714.3
2017-Oct-19 19:00N 43°08' E 031°26'714.0
2017-Oct-19 18:31N 43°01' E 031°28'814.1
2017-Oct-19 17:57N 42°54' E 031°30'814.2
2017-Oct-19 17:23N 42°46' E 031°31'614.3
2017-Oct-19 16:58N 42°40' E 031°32'714.4
2017-Oct-19 16:30N 42°33' E 031°34'914.6
2017-Oct-19 15:54N 42°25' E 031°36'814.3
2017-Oct-19 15:22N 42°17' E 031°37'514.4
2017-Oct-19 15:00N 42°12' E 031°38'814.5
2017-Oct-19 14:27N 42°04' E 031°40'1614.3
2017-Oct-19 13:20N 41°48' E 031°43'514.2
2017-Oct-19 13:00N 41°43' E 031°43'714.0
2017-Oct-19 12:30N 41°36' E 031°44'913.4
2017-Oct-19 11:51N 41°28' E 031°46'1 0.1
2017-Oct-19 07:10N 41°27' E 031°47'0 0.0
2017-Oct-19 06:55N 41°27' E 031°47'0 0.0
2017-Oct-19 06:22N 41°27' E 031°47'0 0.0
2017-Oct-19 05:55N 41°27' E 031°47'0 0.0
2017-Oct-19 05:25N 41°27' E 031°47'0 0.0
2017-Oct-19 04:55N 41°27' E 031°47'0 0.0
2017-Oct-19 04:25N 41°27' E 031°47'0 0.0
2017-Oct-19 03:55N 41°27' E 031°47'0 0.0
2017-Oct-19 03:19N 41°27' E 031°47'0 0.0
2017-Oct-19 02:58N 41°27' E 031°47'0 0.0
2017-Oct-19 02:25N 41°27' E 031°47'0 0.0
2017-Oct-19 01:55N 41°27' E 031°47'0 0.0
2017-Oct-19 00:01N 41°27' E 031°47'0 0.1
2017-Oct-18 23:58N 41°27' E 031°47'0 0.0
2017-Oct-18 23:28N 41°27' E 031°47'0 0.0
2017-Oct-18 22:58N 41°27' E 031°47'0 0.0
2017-Oct-18 22:28N 41°27' E 031°47'0 0.0
2017-Oct-18 21:22N 41°27' E 031°47'36 4.9
2017-Oct-18 14:00N 42°03' E 031°39'714.6
2017-Oct-18 13:30N 42°10' E 031°37'714.6
2017-Oct-18 13:00N 42°17' E 031°36'714.7
2017-Oct-18 12:30N 42°25' E 031°34'714.7
2017-Oct-18 12:00N 42°32' E 031°33'714.6
2017-Oct-18 11:30N 42°39' E 031°32'714.5
2017-Oct-18 11:00N 42°46' E 031°30'714.6
2017-Oct-18 10:30N 42°54' E 031°29'20914.2
2017-Oct-17 19:43N 46°20' E 030°40'0 0.0
2017-Oct-16 08:56N 46°20' E 030°40'12012.7
2017-Oct-15 23:25N 44°24' E 029°51'613.5
2017-Oct-15 23:00N 44°19' E 029°47'713.6
2017-Oct-15 22:30N 44°13' E 029°44'713.4
2017-Oct-15 22:00N 44°07' E 029°40'713.5
2017-Oct-15 21:30N 44°00' E 029°36'713.4
2017-Oct-15 21:00N 43°54' E 029°32'713.4
2017-Oct-15 20:30N 43°48' E 029°28'713.6
2017-Oct-15 20:00N 43°43' E 029°34'713.7
2017-Oct-15 19:30N 43°37' E 029°39'713.9
2017-Oct-15 19:00N 43°31' E 029°45'  
2017-Oct-13 04:17N 44°29' E 031°09'414.2
2017-Oct-13 04:00N 44°33' E 031°08'714.3
2017-Oct-13 03:31N 44°40' E 031°07'714.2
2017-Oct-13 03:00N 44°47' E 031°06'714.1
2017-Oct-13 02:31N 44°54' E 031°04'714.3
2017-Oct-13 02:00N 45°01' E 031°03'714.1
2017-Oct-13 01:30N 45°08' E 031°02'714.3
2017-Oct-13 01:00N 45°15' E 031°00'1014.0
2017-Oct-13 00:18N 45°24' E 030°58'413.8
2017-Oct-13 00:00N 45°29' E 030°57'713.9
2017-Oct-12 23:30N 45°35' E 030°56'714.0
2017-Oct-12 23:01N 45°42' E 030°54'714.0
2017-Oct-12 22:30N 45°49' E 030°53'714.0
2017-Oct-12 22:00N 45°56' E 030°51'714.0
2017-Oct-12 21:30N 46°03' E 030°49'714.0
2017-Oct-12 21:01N 46°10' E 030°47'713.9
2017-Oct-12 20:30N 46°17' E 030°45'510.1
2017-Oct-12 19:59N 46°20' E 030°39'1 0.0
2017-Oct-11 17:59N 46°20' E 030°39'  

Dump ship's entire track history